Tot'Ma, Russia
Current Conditions -  °F | °C
As of 10:00 PM on Tuesday 25 Nov 2014 (Local Time) from ULWC Reporting Station
Overcast Overcast  
Wind Chill: 17°   Ceiling: 600
Heat Index: 25°   Visibility: 4mi
Dew Point: 21°   Wind: 7mph
Humidity: 86%   Direction: 260°W
Pressure: 30.42"   Gusts: 13mph
Location:  59.88°N, 42.75°E
Report Text: ULWC 251900Z 26003G06MPS 7000 OVC006 M04/M06 Q1030 NOSIG RMKQBB200 QFE762/1016 SC057
Loading
Personal Weather Stations






























Interactive Weather Map New forecast layout! Learn more

10-Day Weather Forecast

Advertisements
Track Severe Weather on mobile